Time;durP1;ratioP1;P1;durP2;ratioP2;P2;SDS_P1;SDS_P2;PMS_P1;PMS_P2;Temp;Humidity;BMP_temperature;BMP_pressure;BME280_temperature;BME280_humidity;BME280_pressure;Samples;Min_cycle;Max_cycle;Signal;HPM_P1;HPM_P2
2022/12/09 00:01:20;;;;;;;37.42;21.17;;;;;;;;;;4934146;29;20136;-74
2022/12/09 00:03:47;;;;;;;33.33;22.13;;;;;;;;;;4934208;29;20485;-72
2022/12/09 00:06:17;;;;;;;33.35;20.23;;;;;;;;;;4935041;29;20039;-73
2022/12/09 00:08:43;;;;;;;31.50;19.13;;;;;;;;;;4927522;29;20051;-74
2022/12/09 00:11:09;;;;;;;27.55;16.67;;;;;;;;;;4934837;29;20485;-74
2022/12/09 00:13:35;;;;;;;25.30;14.82;;;;;;;;;;4931137;29;20044;-74
2022/12/09 00:16:11;;;;;;;24.67;14.52;;;;;;;;;;4933572;29;20460;-74
2022/12/09 00:18:37;;;;;;;23.40;14.23;;;;;;;;;;4934684;29;20086;-73
2022/12/09 00:21:30;;;;;;;25.65;15.40;;;;;;;;;;4933688;29;20055;-74
2022/12/09 00:23:58;;;;;;;24.90;14.55;;;;;;;;;;4931845;29;20391;-75
2022/12/09 00:26:26;;;;;;;29.80;15.07;;;;;;;;;;4933069;29;20095;-74
2022/12/09 00:28:53;;;;;;;25.33;14.80;;;;;;;;;;4934914;28;20122;-75
2022/12/09 00:31:23;;;;;;;26.85;14.80;;;;;;;;;;4934997;29;20043;-74
2022/12/09 00:33:50;;;;;;;25.55;16.50;;;;;;;;;;4933581;29;20662;-74
2022/12/09 00:36:18;;;;;;;31.40;17.85;;;;;;;;;;4933459;28;20108;-75
2022/12/09 00:38:45;;;;;;;30.85;17.85;;;;;;;;;;4934395;29;20039;-75
2022/12/09 00:41:12;;;;;;;26.23;15.48;;;;;;;;;;4934571;28;20051;-74
2022/12/09 00:43:39;;;;;;;28.83;15.98;;;;;;;;;;4931121;29;20040;-74
2022/12/09 00:46:06;;;;;;;28.23;15.85;;;;;;;;;;4931366;29;20043;-75
2022/12/09 00:48:36;;;;;;;28.25;16.92;;;;;;;;;;4933841;29;20082;-74
2022/12/09 00:51:02;;;;;;;28.38;16.50;;;;;;;;;;4933675;29;20031;-73
2022/12/09 00:53:28;;;;;;;28.33;15.73;;;;;;;;;;4934105;29;20043;-76
2022/12/09 00:55:54;;;;;;;26.25;16.35;;;;;;;;;;4931352;29;20429;-75
2022/12/09 00:58:20;;;;;;;28.15;16.58;;;;;;;;;;4931002;29;20024;-75
2022/12/09 01:00:46;;;;;;;31.10;18.13;;;;;;;;;;4948798;29;20131;-75
2022/12/09 01:03:16;;;;;;;28.95;17.42;;;;;;;;;;4935236;29;20113;-75
2022/12/09 01:05:42;;;;;;;33.30;20.00;;;;;;;;;;4934522;29;20054;-73
2022/12/09 01:08:11;;;;;;;32.78;19.33;;;;;;;;;;4934937;29;20028;-74
2022/12/09 01:10:39;;;;;;;25.63;16.50;;;;;;;;;;4934910;29;20401;-75
2022/12/09 01:13:05;;;;;;;29.23;17.67;;;;;;;;;;4917816;29;21213;-75
2022/12/09 01:15:31;;;;;;;31.83;19.33;;;;;;;;;;4942422;29;20034;-74
2022/12/09 01:17:57;;;;;;;31.52;19.88;;;;;;;;;;4937386;29;20039;-74
2022/12/09 01:20:23;;;;;;;31.90;20.15;;;;;;;;;;4934462;29;20401;-76
2022/12/09 01:22:49;;;;;;;31.83;19.42;;;;;;;;;;4935461;29;20075;-75
2022/12/09 01:25:15;;;;;;;34.53;18.27;;;;;;;;;;4937925;29;20035;-74
2022/12/09 01:27:43;;;;;;;28.60;17.13;;;;;;;;;;4935956;29;20043;-76
2022/12/09 01:30:12;;;;;;;30.45;17.33;;;;;;;;;;4934076;29;20518;-74
2022/12/09 01:32:38;;;;;;;32.13;18.15;;;;;;;;;;4933955;29;20016;-74
2022/12/09 01:35:04;;;;;;;31.45;16.90;;;;;;;;;;4933694;29;20051;-73
2022/12/09 01:37:34;;;;;;;29.70;16.45;;;;;;;;;;4933413;29;20421;-74
2022/12/09 01:40:06;;;;;;;26.63;16.25;;;;;;;;;;4929030;29;20050;-75
2022/12/09 01:42:32;;;;;;;25.45;16.15;;;;;;;;;;4930480;29;20462;-75
2022/12/09 01:45:29;;;;;;;27.67;16.45;;;;;;;;;;4948142;29;20035;-75
2022/12/09 01:48:12;;;;;;;28.25;16.83;;;;;;;;;;4928391;28;20133;-74
2022/12/09 01:51:03;;;;;;;25.45;16.15;;;;;;;;;;4945415;29;20378;-74
2022/12/09 01:53:35;;;;;;;27.42;16.67;;;;;;;;;;4926749;29;20079;-75
2022/12/09 01:56:06;;;;;;;24.50;16.27;;;;;;;;;;4933628;29;20486;-75
2022/12/09 01:58:32;;;;;;;25.83;15.18;;;;;;;;;;4933302;29;20139;-74
2022/12/09 02:00:59;;;;;;;24.65;15.88;;;;;;;;;;4931685;29;20044;-74
2022/12/09 02:03:25;;;;;;;32.25;17.48;;;;;;;;;;4932483;29;20039;-74
2022/12/09 02:05:51;;;;;;;26.80;17.55;;;;;;;;;;4934253;29;20036;-76
2022/12/09 02:08:18;;;;;;;32.95;18.13;;;;;;;;;;4931508;28;20118;-74
2022/12/09 02:11:10;;;;;;;39.50;19.02;;;;;;;;;;4923619;29;20039;-75
2022/12/09 02:13:45;;;;;;;33.08;19.27;;;;;;;;;;4921437;29;20040;-75
2022/12/09 02:16:16;;;;;;;32.60;18.45;;;;;;;;;;4942107;29;20103;-75
2022/12/09 02:19:07;;;;;;;34.45;18.60;;;;;;;;;;4936722;29;20035;-75
2022/12/09 02:21:37;;;;;;;30.35;17.75;;;;;;;;;;4951649;29;20056;-75
2022/12/09 02:24:26;;;;;;;32.30;17.88;;;;;;;;;;4932561;28;20055;-74
2022/12/09 02:27:15;;;;;;;26.40;15.15;;;;;;;;;;4935095;29;20405;-74
2022/12/09 02:29:52;;;;;;;26.92;16.58;;;;;;;;;;4932158;29;20031;-74
2022/12/09 02:32:37;;;;;;;27.85;16.02;;;;;;;;;;4934874;29;20489;-74
2022/12/09 02:35:31;;;;;;;29.05;16.42;;;;;;;;;;4929870;29;20103;-74
2022/12/09 02:38:32;;;;;;;29.05;16.23;;;;;;;;;;4951631;28;20118;-74
2022/12/09 02:41:08;;;;;;;36.72;14.60;;;;;;;;;;4910266;29;20131;-74
2022/12/09 02:43:40;;;;;;;25.02;14.05;;;;;;;;;;4934175;29;20075;-74
2022/12/09 02:46:09;;;;;;;22.65;13.88;;;;;;;;;;4932408;29;20036;-74
2022/12/09 02:48:41;;;;;;;27.42;14.80;;;;;;;;;;4933075;29;20613;-73
2022/12/09 02:51:15;;;;;;;24.20;14.45;;;;;;;;;;4933442;29;20063;-75
2022/12/09 02:53:44;;;;;;;23.65;13.95;;;;;;;;;;4930448;29;20043;-73
2022/12/09 02:56:13;;;;;;;23.75;15.00;;;;;;;;;;4935298;29;20057;-73
2022/12/09 02:58:39;;;;;;;21.90;14.90;;;;;;;;;;4937894;29;20135;-74
2022/12/09 03:01:06;;;;;;;22.08;13.98;;;;;;;;;;4950946;29;20568;-75
2022/12/09 03:03:33;;;;;;;26.48;14.60;;;;;;;;;;4936456;29;20039;-76
2022/12/09 03:06:18;;;;;;;25.90;13.90;;;;;;;;;;4935905;29;20031;-73
2022/12/09 03:09:12;;;;;;;25.15;14.07;;;;;;;;;;4929830;29;20043;-75
2022/12/09 03:11:39;;;;;;;;;;;;;;;;;;4935863;29;20454;-74
2022/12/09 03:14:18;;;;;;;24.05;14.65;;;;;;;;;;4935681;29;19919;-75
2022/12/09 03:17:00;;;;;;;25.23;14.80;;;;;;;;;;4932839;29;20047;-75
2022/12/09 03:19:57;;;;;;;23.83;15.45;;;;;;;;;;4935794;29;20027;-74
2022/12/09 03:22:27;;;;;;;26.88;16.80;;;;;;;;;;4927548;29;20065;-74
2022/12/09 03:25:06;;;;;;;26.85;15.48;;;;;;;;;;4935279;29;20032;-74
2022/12/09 03:27:37;;;;;;;27.63;15.20;;;;;;;;;;4935751;29;20118;-79
2022/12/09 03:30:07;;;;;;;27.48;16.75;;;;;;;;;;4936030;29;20513;-74
2022/12/09 03:32:38;;;;;;;28.33;15.32;;;;;;;;;;4936008;29;20557;-76
2022/12/09 03:35:10;;;;;;;29.25;18.23;;;;;;;;;;4936083;29;20035;-75
2022/12/09 03:37:39;;;;;;;28.90;17.75;;;;;;;;;;4935477;29;20050;-74
2022/12/09 03:40:09;;;;;;;28.30;16.85;;;;;;;;;;4935769;29;20044;-75
2022/12/09 03:42:49;;;;;;;26.58;16.38;;;;;;;;;;4935803;29;20090;-74
2022/12/09 03:45:17;;;;;;;25.33;16.23;;;;;;;;;;4935197;29;20035;-74
2022/12/09 03:47:43;;;;;;;27.38;17.77;;;;;;;;;;4935440;29;20087;-74
2022/12/09 03:50:09;;;;;;;31.00;18.13;;;;;;;;;;4931761;29;20031;-74
2022/12/09 03:52:52;;;;;;;26.30;17.10;;;;;;;;;;4922143;29;20581;-75
2022/12/09 03:55:35;;;;;;;31.13;18.55;;;;;;;;;;4935171;29;20126;-75
2022/12/09 03:58:05;;;;;;;27.58;16.00;;;;;;;;;;4935501;29;20039;-74
2022/12/09 04:00:37;;;;;;;27.92;15.57;;;;;;;;;;4936180;29;20418;-74
2022/12/09 04:03:05;;;;;;;22.85;15.50;;;;;;;;;;4935892;29;20059;-74
2022/12/09 04:05:31;;;;;;;27.67;17.58;;;;;;;;;;4931066;29;20035;-74
2022/12/09 04:07:58;;;;;;;26.77;17.58;;;;;;;;;;4934415;29;20083;-74
2022/12/09 04:10:24;;;;;;;28.95;18.17;;;;;;;;;;4927697;29;20114;-74
2022/12/09 04:12:50;;;;;;;29.60;16.98;;;;;;;;;;4934638;29;20040;-74
2022/12/09 04:15:16;;;;;;;28.92;18.27;;;;;;;;;;4934188;29;20046;-74
2022/12/09 04:17:41;;;;;;;29.92;17.33;;;;;;;;;;4935313;29;20059;-75
2022/12/09 04:20:08;;;;;;;30.25;18.15;;;;;;;;;;4935162;29;20497;-75
2022/12/09 04:22:34;;;;;;;28.80;17.63;;;;;;;;;;4935209;29;20098;-74
2022/12/09 04:25:00;;;;;;;35.47;21.67;;;;;;;;;;4933877;29;20449;-75
2022/12/09 04:27:25;;;;;;;27.20;17.42;;;;;;;;;;4935748;29;20039;-75
2022/12/09 04:29:51;;;;;;;30.13;19.38;;;;;;;;;;4935702;29;20059;-74
2022/12/09 04:32:17;;;;;;;26.27;17.17;;;;;;;;;;4934607;29;20110;-74
2022/12/09 04:34:44;;;;;;;34.65;21.65;;;;;;;;;;4934185;29;20369;-74
2022/12/09 04:37:10;;;;;;;29.35;19.52;;;;;;;;;;4935398;29;20039;-74
2022/12/09 04:39:37;;;;;;;29.95;19.67;;;;;;;;;;4934362;29;20040;-74
2022/12/09 04:42:03;;;;;;;29.10;20.40;;;;;;;;;;4922412;29;20118;-74
2022/12/09 04:44:29;;;;;;;32.90;20.35;;;;;;;;;;4934223;29;20123;-75
2022/12/09 04:46:55;;;;;;;40.17;22.42;;;;;;;;;;4937897;29;20062;-75
2022/12/09 04:49:21;;;;;;;43.25;24.13;;;;;;;;;;4942282;29;20517;-75
2022/12/09 04:51:46;;;;;;;39.60;21.88;;;;;;;;;;4933158;29;20206;-75
2022/12/09 04:54:13;;;;;;;31.02;18.33;;;;;;;;;;4920818;29;20084;-75
2022/12/09 04:56:39;;;;;;;29.27;18.73;;;;;;;;;;4921733;29;20538;-75
2022/12/09 04:59:05;;;;;;;44.17;20.95;;;;;;;;;;4949582;29;20027;-75
2022/12/09 05:01:31;;;;;;;33.63;19.88;;;;;;;;;;4935655;29;20485;-74
2022/12/09 05:03:58;;;;;;;33.47;18.90;;;;;;;;;;4934921;29;20031;-75
2022/12/09 05:06:24;;;;;;;35.33;20.15;;;;;;;;;;4934781;29;20031;-75
2022/12/09 05:08:50;;;;;;;37.00;21.58;;;;;;;;;;4934471;29;20035;-75
2022/12/09 05:11:18;;;;;;;36.55;21.63;;;;;;;;;;4934198;29;20027;-74
2022/12/09 05:13:44;;;;;;;39.72;22.75;;;;;;;;;;4934399;29;20078;-75
2022/12/09 05:16:13;;;;;;;44.42;21.85;;;;;;;;;;4928306;29;20478;-75
2022/12/09 05:18:39;;;;;;;48.28;24.67;;;;;;;;;;4929476;29;20036;-75
2022/12/09 05:21:06;;;;;;;46.90;22.50;;;;;;;;;;4934416;29;20501;-75
2022/12/09 05:23:33;;;;;;;36.83;22.23;;;;;;;;;;4933982;29;20043;-75
2022/12/09 05:26:03;;;;;;;34.08;20.52;;;;;;;;;;4933756;29;20065;-76
2022/12/09 05:28:30;;;;;;;42.45;23.30;;;;;;;;;;4933662;29;20070;-74
2022/12/09 05:31:04;;;;;;;40.95;25.38;;;;;;;;;;4932287;29;20035;-74
2022/12/09 05:33:30;;;;;;;39.13;21.73;;;;;;;;;;4934518;29;20131;-75
2022/12/09 05:35:57;;;;;;;58.72;22.17;;;;;;;;;;4931457;29;20104;-75
2022/12/09 05:38:23;;;;;;;43.47;22.08;;;;;;;;;;4933319;29;20040;-75
2022/12/09 05:40:51;;;;;;;37.17;21.70;;;;;;;;;;4928945;29;20544;-75
2022/12/09 05:43:17;;;;;;;36.33;21.98;;;;;;;;;;4934095;29;20031;-75
2022/12/09 05:45:44;;;;;;;45.97;24.60;;;;;;;;;;4934425;29;20090;-75
2022/12/09 05:48:10;;;;;;;57.30;24.58;;;;;;;;;;4934641;29;20476;-75
2022/12/09 05:50:36;;;;;;;45.08;21.75;;;;;;;;;;4934660;29;20059;-76
2022/12/09 05:53:02;;;;;;;37.22;20.75;;;;;;;;;;4936260;29;21044;-76
2022/12/09 05:55:28;;;;;;;42.63;23.58;;;;;;;;;;4935956;29;20479;-75
2022/12/09 05:57:54;;;;;;;46.67;23.98;;;;;;;;;;4937665;29;20032;-74
2022/12/09 06:00:21;;;;;;;46.25;23.30;;;;;;;;;;4938583;29;20036;-75
2022/12/09 06:02:47;;;;;;;51.50;28.23;;;;;;;;;;4938383;29;20119;-74
2022/12/09 06:05:16;;;;;;;39.70;23.08;;;;;;;;;;4936181;29;20453;-75
2022/12/09 06:07:42;;;;;;;39.72;21.95;;;;;;;;;;4936673;29;20031;-76
2022/12/09 06:10:09;;;;;;;72.03;23.38;;;;;;;;;;4937994;29;20027;-75
2022/12/09 06:12:34;;;;;;;75.93;23.73;;;;;;;;;;4937380;29;20501;-75
2022/12/09 06:15:00;;;;;;;41.80;23.05;;;;;;;;;;4935994;29;20043;-74
2022/12/09 06:17:35;;;;;;;64.53;26.63;;;;;;;;;;4933307;29;20098;-74
2022/12/09 06:20:01;;;;;;;64.15;25.63;;;;;;;;;;4949417;29;20138;-75
2022/12/09 06:22:27;;;;;;;59.25;25.67;;;;;;;;;;4933191;29;20070;-76
2022/12/09 06:24:55;;;;;;;63.33;26.75;;;;;;;;;;4918683;29;20533;-75
2022/12/09 06:27:21;;;;;;;66.40;26.35;;;;;;;;;;4918904;29;20044;-75
2022/12/09 06:29:47;;;;;;;45.55;24.23;;;;;;;;;;4933266;29;20064;-76
2022/12/09 06:32:13;;;;;;;54.72;25.20;;;;;;;;;;4918414;29;20512;-75
2022/12/09 06:34:38;;;;;;;58.85;25.67;;;;;;;;;;4918492;29;20447;-75
2022/12/09 06:37:04;;;;;;;49.28;23.92;;;;;;;;;;4944769;29;20035;-75
2022/12/09 06:39:30;;;;;;;63.67;26.92;;;;;;;;;;4950448;29;20112;-75
2022/12/09 06:41:56;;;;;;;62.55;26.25;;;;;;;;;;4933786;29;20162;-75
2022/12/09 06:44:23;;;;;;;87.28;27.08;;;;;;;;;;4936239;29;20028;-75
2022/12/09 06:46:49;;;;;;;69.72;25.55;;;;;;;;;;4937681;29;20036;-74
2022/12/09 06:49:15;;;;;;;72.97;26.88;;;;;;;;;;4933978;29;20040;-78
2022/12/09 06:51:41;;;;;;;66.88;26.17;;;;;;;;;;4934329;29;20031;-75
2022/12/09 06:54:08;;;;;;;74.70;26.50;;;;;;;;;;4936421;29;20043;-76
2022/12/09 06:56:34;;;;;;;71.38;27.55;;;;;;;;;;4936864;29;20050;-77
2022/12/09 06:59:06;;;;;;;75.88;28.33;;;;;;;;;;4937540;29;20035;-78
2022/12/09 07:01:32;;;;;;;47.55;24.63;;;;;;;;;;4936215;29;20059;-74
2022/12/09 07:03:58;;;;;;;101.35;26.35;;;;;;;;;;4950828;28;20146;-76
2022/12/09 07:06:27;;;;;;;77.32;27.50;;;;;;;;;;4934420;29;20035;-75
2022/12/09 07:08:55;;;;;;;50.00;24.08;;;;;;;;;;4935799;29;20035;-75
2022/12/09 07:11:22;;;;;;;52.58;23.23;;;;;;;;;;4942303;29;20146;-76
2022/12/09 07:13:49;;;;;;;46.45;23.92;;;;;;;;;;4934758;29;20698;-77
2022/12/09 07:16:15;;;;;;;61.97;29.10;;;;;;;;;;4948682;29;20519;-77
2022/12/09 07:18:42;;;;;;;60.67;29.60;;;;;;;;;;4949573;28;20043;-76
2022/12/09 07:21:14;;;;;;;69.25;30.92;;;;;;;;;;4943624;28;20060;-76
2022/12/09 07:23:40;;;;;;;62.28;28.00;;;;;;;;;;4917444;29;20040;-76
2022/12/09 07:26:07;;;;;;;74.05;28.95;;;;;;;;;;4916338;29;20115;-76
2022/12/09 07:28:34;;;;;;;74.03;32.28;;;;;;;;;;4916443;29;20111;-76
2022/12/09 07:31:01;;;;;;;58.72;28.98;;;;;;;;;;4924620;29;20119;-74
2022/12/09 07:33:27;;;;;;;65.70;28.35;;;;;;;;;;4936049;29;20038;-75
2022/12/09 07:35:55;;;;;;;67.90;29.42;;;;;;;;;;4926166;29;20581;-75
2022/12/09 07:38:23;;;;;;;63.72;26.90;;;;;;;;;;4925364;29;20024;-77
2022/12/09 07:40:51;;;;;;;59.40;26.65;;;;;;;;;;4925140;29;20528;-78
2022/12/09 07:43:17;;;;;;;49.75;23.90;;;;;;;;;;4914780;29;20123;-77
2022/12/09 07:45:44;;;;;;;52.97;25.77;;;;;;;;;;4916440;29;20482;-74
2022/12/09 07:48:10;;;;;;;53.15;25.02;;;;;;;;;;4915714;29;20405;-75
2022/12/09 07:50:36;;;;;;;46.13;25.55;;;;;;;;;;4916306;29;20040;-75
2022/12/09 07:53:03;;;;;;;47.13;24.65;;;;;;;;;;4916172;29;20039;-76
2022/12/09 07:55:29;;;;;;;52.53;27.30;;;;;;;;;;4916224;29;20040;-77
2022/12/09 07:57:55;;;;;;;62.25;28.38;;;;;;;;;;4916318;29;20047;-75
2022/12/09 08:00:21;;;;;;;62.67;27.13;;;;;;;;;;4914034;29;20414;-75
2022/12/09 08:02:47;;;;;;;55.25;27.83;;;;;;;;;;4915100;29;20054;-75
2022/12/09 08:05:13;;;;;;;57.50;27.30;;;;;;;;;;4898149;29;20036;-75
2022/12/09 08:07:39;;;;;;;64.93;29.90;;;;;;;;;;4915861;29;20467;-74
2022/12/09 08:10:05;;;;;;;51.30;26.98;;;;;;;;;;4916007;29;20055;-73
2022/12/09 08:12:31;;;;;;;55.80;26.50;;;;;;;;;;4915708;29;20054;-73
2022/12/09 08:14:57;;;;;;;59.80;28.00;;;;;;;;;;4915023;29;20032;-73
2022/12/09 08:17:25;;;;;;;79.60;29.80;;;;;;;;;;4916389;29;20040;-75
2022/12/09 08:19:51;;;;;;;53.45;26.00;;;;;;;;;;4916865;29;20103;-75
2022/12/09 08:22:18;;;;;;;50.20;27.60;;;;;;;;;;4916294;29;20060;-76
2022/12/09 08:24:44;;;;;;;54.33;28.70;;;;;;;;;;4916188;29;20035;-75
2022/12/09 08:27:10;;;;;;;53.40;29.70;;;;;;;;;;4915387;29;20071;-74
2022/12/09 08:29:36;;;;;;;48.47;29.25;;;;;;;;;;4915893;29;20100;-75
2022/12/09 08:32:02;;;;;;;51.05;30.08;;;;;;;;;;4929847;29;20413;-75
2022/12/09 08:34:29;;;;;;;59.63;32.30;;;;;;;;;;4915768;29;20036;-74
2022/12/09 08:36:55;;;;;;;48.92;27.23;;;;;;;;;;4914523;29;20035;-73
2022/12/09 08:39:22;;;;;;;48.90;28.45;;;;;;;;;;4915745;29;20036;-74
2022/12/09 08:41:48;;;;;;;48.85;27.73;;;;;;;;;;4914953;29;20050;-74
2022/12/09 08:44:18;;;;;;;51.42;28.45;;;;;;;;;;4935427;29;20221;-75
2022/12/09 08:46:47;;;;;;;56.08;29.08;;;;;;;;;;4935875;29;20038;-74
2022/12/09 08:49:16;;;;;;;51.67;28.88;;;;;;;;;;4935809;29;20027;-74
2022/12/09 08:51:46;;;;;;;45.47;26.98;;;;;;;;;;4926834;29;20043;-77
2022/12/09 08:54:12;;;;;;;54.58;30.20;;;;;;;;;;4929998;29;20055;-72
2022/12/09 08:56:38;;;;;;;45.58;27.55;;;;;;;;;;4915812;29;20036;-74
2022/12/09 08:59:04;;;;;;;50.70;27.60;;;;;;;;;;4916123;29;20033;-74
2022/12/09 09:01:33;;;;;;;61.80;28.88;;;;;;;;;;4915905;29;20474;-73
2022/12/09 09:04:10;;;;;;;54.33;28.92;;;;;;;;;;4918190;29;20031;-73
2022/12/09 09:06:39;;;;;;;63.15;28.90;;;;;;;;;;4933211;29;20552;-74
2022/12/09 09:09:07;;;;;;;56.17;28.83;;;;;;;;;;4934621;29;20108;-73
2022/12/09 09:11:33;;;;;;;52.92;27.05;;;;;;;;;;4933037;29;20028;-75
2022/12/09 09:14:02;;;;;;;42.22;25.55;;;;;;;;;;4949678;29;20068;-75
2022/12/09 09:16:28;;;;;;;42.92;25.08;;;;;;;;;;4934384;29;20051;-75
2022/12/09 09:18:54;;;;;;;44.15;24.83;;;;;;;;;;4934344;29;20558;-74
2022/12/09 09:21:22;;;;;;;45.38;26.15;;;;;;;;;;4934666;29;20047;-74
2022/12/09 09:23:48;;;;;;;59.42;27.23;;;;;;;;;;4934528;29;20577;-75
2022/12/09 09:26:17;;;;;;;49.20;26.55;;;;;;;;;;4933877;29;20031;-74
2022/12/09 09:28:44;;;;;;;51.90;26.23;;;;;;;;;;4932313;29;20386;-76
2022/12/09 09:31:13;;;;;;;45.83;23.90;;;;;;;;;;4915548;29;20092;-74
2022/12/09 09:33:39;;;;;;;43.17;25.52;;;;;;;;;;4914435;29;20040;-75
2022/12/09 09:36:07;;;;;;;45.15;26.52;;;;;;;;;;4913818;29;20042;-75
2022/12/09 09:38:34;;;;;;;44.70;25.02;;;;;;;;;;4915231;29;20390;-75
2022/12/09 09:41:01;;;;;;;61.25;26.48;;;;;;;;;;4913616;29;20040;-76
2022/12/09 09:43:32;;;;;;;46.28;27.63;;;;;;;;;;4915033;29;20538;-75
2022/12/09 09:45:58;;;;;;;49.05;25.52;;;;;;;;;;4915459;29;20067;-75
2022/12/09 09:48:30;;;;;;;43.67;23.77;;;;;;;;;;4913937;29;20032;-74
2022/12/09 09:51:07;;;;;;;46.85;25.35;;;;;;;;;;4915489;29;20111;-73
2022/12/09 09:53:34;;;;;;;52.28;26.55;;;;;;;;;;4898658;29;20040;-74
2022/12/09 09:56:42;;;;;;;47.20;26.23;;;;;;;;;;4914595;29;20092;-79
2022/12/09 09:59:15;;;;;;;44.90;25.35;;;;;;;;;;4914682;29;20032;-75
2022/12/09 10:02:04;;;;;;;41.55;24.48;;;;;;;;;;4915602;29;20059;-75
2022/12/09 10:05:21;;;;;;;41.70;23.88;;;;;;;;;;4910926;29;20040;-76
2022/12/09 10:07:55;;;;;;;36.42;21.98;;;;;;;;;;4893085;29;20041;-76
2022/12/09 10:10:35;;;;;;;41.55;23.50;;;;;;;;;;4893868;29;20044;-74
2022/12/09 10:13:24;;;;;;;31.98;19.95;;;;;;;;;;4908628;29;20051;-76
2022/12/09 10:16:12;;;;;;;52.25;23.40;;;;;;;;;;4912176;29;20048;-77
2022/12/09 10:18:51;;;;;;;41.40;22.15;;;;;;;;;;4914886;29;20072;-76
2022/12/09 10:21:19;;;;;;;35.72;20.80;;;;;;;;;;4914495;29;20098;-76
2022/12/09 10:23:50;;;;;;;35.33;20.50;;;;;;;;;;4914966;29;20052;-76
2022/12/09 10:26:25;;;;;;;37.40;19.92;;;;;;;;;;4914529;29;20123;-77
2022/12/09 10:29:02;;;;;;;40.53;20.83;;;;;;;;;;4914643;29;20032;-74
2022/12/09 10:31:28;;;;;;;38.45;20.17;;;;;;;;;;4914714;29;20036;-74
2022/12/09 10:33:53;;;;;;;48.17;19.70;;;;;;;;;;4926139;29;20489;-73
2022/12/09 10:36:25;;;;;;;29.13;17.58;;;;;;;;;;4933539;29;20079;-76
2022/12/09 10:38:51;;;;;;;34.08;19.42;;;;;;;;;;4936091;29;20036;-75
2022/12/09 10:44:25;;;;;;;31.00;19.73;;;;;;;;;;4936838;29;20114;-76
2022/12/09 10:47:03;;;;;;;35.38;19.23;;;;;;;;;;4936988;29;20091;-74
2022/12/09 10:49:30;;;;;;;32.83;19.13;;;;;;;;;;4937118;29;20115;-74
2022/12/09 10:51:57;;;;;;;36.38;19.98;;;;;;;;;;4937363;29;20115;-77
2022/12/09 10:54:34;;;;;;;45.90;21.98;;;;;;;;;;4937038;29;20036;-76
2022/12/09 10:57:24;;;;;;;42.78;21.70;;;;;;;;;;4935457;29;20039;-76
2022/12/09 11:00:02;;;;;;;55.85;21.65;;;;;;;;;;4936622;29;20122;-76
2022/12/09 11:02:30;;;;;;;44.47;21.20;;;;;;;;;;4936891;29;20040;-75
2022/12/09 11:05:26;;;;;;;41.40;21.20;;;;;;;;;;4935392;29;20051;-75
2022/12/09 11:07:55;;;;;;;35.92;21.13;;;;;;;;;;4937199;28;20051;-75
2022/12/09 11:10:24;;;;;;;41.10;21.20;;;;;;;;;;4938210;29;20063;-77
2022/12/09 11:12:53;;;;;;;47.88;23.00;;;;;;;;;;4918275;29;20088;-76
2022/12/09 11:15:35;;;;;;;42.30;20.20;;;;;;;;;;4916728;29;20044;-77
2022/12/09 11:18:06;;;;;;;28.80;15.80;;;;;;;;;;4900862;29;20044;-78
2022/12/09 11:20:38;;;;;;;40.97;18.58;;;;;;;;;;4916160;29;20131;-77
2022/12/09 11:23:14;;;;;;;34.22;19.73;;;;;;;;;;4917263;29;20120;-78
2022/12/09 11:25:58;;;;;;;34.20;18.45;;;;;;;;;;4920956;29;20043;-78
2022/12/09 11:28:28;;;;;;;;;;;;;;;;;;4921512;29;20541;-76
2022/12/09 11:30:58;;;;;;;36.58;18.98;;;;;;;;;;4932256;29;19934;-76
2022/12/09 11:33:24;;;;;;;46.58;20.23;;;;;;;;;;4918837;29;20125;-78
2022/12/09 11:35:59;;;;;;;43.40;20.30;;;;;;;;;;4918368;29;20094;-76
2022/12/09 11:38:37;;;;;;;33.78;19.45;;;;;;;;;;4918017;29;20040;-75
2022/12/09 11:41:09;;;;;;;40.55;20.42;;;;;;;;;;4917457;29;20036;-78
2022/12/09 11:43:43;;;;;;;37.70;20.42;;;;;;;;;;4916993;29;20043;-74
2022/12/09 11:46:12;;;;;;;37.85;20.63;;;;;;;;;;4931772;29;20494;-77
2022/12/09 11:49:02;;;;;;;42.90;21.17;;;;;;;;;;4916526;29;20074;-78
2022/12/09 11:51:34;;;;;;;40.17;20.50;;;;;;;;;;4917357;29;20032;-79
2022/12/09 11:54:29;;;;;;;43.85;22.20;;;;;;;;;;4916452;29;20039;-79
2022/12/09 11:56:59;;;;;;;46.15;21.98;;;;;;;;;;4916138;29;20183;-77
2022/12/09 11:59:34;;;;;;;48.25;25.08;;;;;;;;;;4916308;29;20130;-75
2022/12/09 12:02:13;;;;;;;62.60;24.60;;;;;;;;;;4917710;29;20046;-78
2022/12/09 12:04:54;;;;;;;55.53;25.33;;;;;;;;;;4935503;29;20042;-77
2022/12/09 12:07:31;;;;;;;42.70;24.23;;;;;;;;;;4951446;29;20071;-77
2022/12/09 12:09:58;;;;;;;37.83;22.70;;;;;;;;;;4935730;29;20043;-78
2022/12/09 12:12:37;;;;;;;52.05;22.90;;;;;;;;;;4917486;29;20421;-75
2022/12/09 12:15:24;;;;;;;55.78;25.42;;;;;;;;;;4924918;29;20063;-77
2022/12/09 12:17:55;;;;;;;42.53;23.17;;;;;;;;;;4936497;29;20115;-74
2022/12/09 12:20:57;;;;;;;52.33;24.52;;;;;;;;;;4936191;29;20039;-75
2022/12/09 12:23:35;;;;;;;53.70;25.35;;;;;;;;;;4934172;29;20054;-77
2022/12/09 12:26:08;;;;;;;47.33;25.05;;;;;;;;;;4935318;29;20047;-77
2022/12/09 12:28:43;;;;;;;;;;;;;;;;;;4918888;29;20032;-75
2022/12/09 12:31:29;;;;;;;43.63;25.15;;;;;;;;;;4928792;29;19915;-78
2022/12/09 12:33:58;;;;;;;50.47;24.25;;;;;;;;;;4933766;29;20040;-74
2022/12/09 12:36:42;;;;;;;44.63;24.20;;;;;;;;;;4934095;29;20037;-75
2022/12/09 12:39:45;;;;;;;46.67;23.33;;;;;;;;;;4931194;29;20036;-76
2022/12/09 12:42:30;;;;;;;44.00;24.38;;;;;;;;;;4943792;29;20032;-78
2022/12/09 12:48:06;;;;;;;44.92;23.10;;;;;;;;;;4934978;29;20115;-76
2022/12/09 12:50:42;;;;;;;39.35;22.73;;;;;;;;;;4935226;28;20067;-76
2022/12/09 12:53:39;;;;;;;46.38;23.48;;;;;;;;;;4933077;29;20031;-77
2022/12/09 12:56:22;;;;;;;51.05;22.20;;;;;;;;;;4916998;29;20096;-76
2022/12/09 12:58:58;;;;;;;50.13;24.10;;;;;;;;;;4929128;29;20127;-75
2022/12/09 13:01:33;;;;;;;42.55;23.40;;;;;;;;;;4933977;29;20084;-76
2022/12/09 13:04:12;;;;;;;54.22;24.67;;;;;;;;;;4931001;29;20039;-78
2022/12/09 13:06:50;;;;;;;43.97;22.92;;;;;;;;;;4934406;29;20039;-77
2022/12/09 13:09:33;;;;;;;49.80;19.00;;;;;;;;;;4933284;29;20031;-77
2022/12/09 13:12:06;;;;;;;38.60;16.50;;;;;;;;;;4935019;29;20086;-76
2022/12/09 13:14:52;;;;;;;29.08;15.18;;;;;;;;;;4913274;29;20410;-77
2022/12/09 13:17:22;;;;;;;31.92;13.35;;;;;;;;;;4923839;29;20036;-77
2022/12/09 13:19:53;;;;;;;32.72;14.80;;;;;;;;;;4932895;29;20098;-76
2022/12/09 13:22:32;;;;;;;28.83;15.57;;;;;;;;;;4948938;29;20080;-77
2022/12/09 13:25:29;;;;;;;31.50;16.83;;;;;;;;;;4920701;29;20440;-77
2022/12/09 13:28:07;;;;;;;42.72;17.52;;;;;;;;;;4924278;29;20047;-78
2022/12/09 13:31:12;;;;;;;36.13;17.08;;;;;;;;;;4933901;28;20131;-74
2022/12/09 13:33:56;;;;;;;36.35;15.00;;;;;;;;;;4943704;29;20048;-77
2022/12/09 13:36:44;;;;;;;41.83;16.65;;;;;;;;;;4947375;28;20032;-77
2022/12/09 13:39:38;;;;;;;42.20;17.25;;;;;;;;;;4931509;29;20375;-78
2022/12/09 13:45:33;;;;;;;66.50;21.48;;;;;;;;;;4924351;29;20170;-77
2022/12/09 13:48:20;;;;;;;41.25;19.35;;;;;;;;;;4930377;29;20054;-77
2022/12/09 13:50:53;;;;;;;47.80;20.33;;;;;;;;;;4923058;29;20044;-77
2022/12/09 13:53:18;;;;;;;47.28;20.27;;;;;;;;;;4936781;28;20048;-77
2022/12/09 13:55:51;;;;;;;38.88;19.90;;;;;;;;;;4930548;28;20554;-76
2022/12/09 13:58:23;;;;;;;38.60;18.70;;;;;;;;;;4931351;29;20047;-75
2022/12/09 14:01:10;;;;;;;41.90;19.55;;;;;;;;;;4933334;29;20044;-78
2022/12/09 14:04:02;;;;;;;32.33;18.00;;;;;;;;;;4929844;29;20155;-77
2022/12/09 14:06:47;;;;;;;36.50;18.30;;;;;;;;;;4911936;29;20513;-77
2022/12/09 14:09:37;;;;;;;42.75;19.25;;;;;;;;;;4933782;29;20454;-76
2022/12/09 14:12:06;;;;;;;47.78;19.15;;;;;;;;;;4931869;28;20036;-76
2022/12/09 14:14:32;;;;;;;40.10;19.20;;;;;;;;;;4935234;29;20528;-76
2022/12/09 14:17:14;;;;;;;41.95;19.23;;;;;;;;;;4933682;28;20031;-76
2022/12/09 14:19:51;;;;;;;38.00;19.60;;;;;;;;;;4937403;29;20031;-76
2022/12/09 14:22:20;;;;;;;45.38;22.33;;;;;;;;;;4937239;29;20044;-77
2022/12/09 14:24:50;;;;;;;53.85;24.83;;;;;;;;;;4934926;29;20078;-73
2022/12/09 14:27:18;;;;;;;44.28;23.80;;;;;;;;;;4951558;29;20042;-76
2022/12/09 14:29:51;;;;;;;43.35;22.02;;;;;;;;;;4957463;29;20039;-76
2022/12/09 14:32:51;;;;;;;45.65;22.13;;;;;;;;;;4921952;28;20039;-77
2022/12/09 14:35:30;;;;;;;50.15;23.73;;;;;;;;;;4918447;29;20036;-78
2022/12/09 14:38:04;;;;;;;43.65;22.25;;;;;;;;;;4919123;29;20049;-78
2022/12/09 14:40:46;;;;;;;46.13;21.48;;;;;;;;;;4919943;29;20490;-75
2022/12/09 14:43:25;;;;;;;47.08;24.20;;;;;;;;;;4936544;29;20039;-78
2022/12/09 14:46:01;;;;;;;53.63;24.42;;;;;;;;;;4925685;29;20062;-77
2022/12/09 14:48:41;;;;;;;47.47;24.00;;;;;;;;;;4938239;29;20482;-77
2022/12/09 14:51:14;;;;;;;39.58;22.25;;;;;;;;;;4939829;29;20075;-78
2022/12/09 14:53:45;;;;;;;41.63;22.27;;;;;;;;;;4938163;29;20149;-77
2022/12/09 14:56:18;;;;;;;40.88;21.27;;;;;;;;;;4934702;29;20491;-78